Flight Track Log - Related Links

Times and Time Zones

All times are in EDT time to prevent confusion due to time zone crossing. See the RPA3253 flight status page for this flight to view local times or setup timezone preferences in your user account.


Time Position Orientation Groundspeed Altitude Reporting Facility
EDT Latitude Longitude Course Direction KTS MPH feet Rate Location/Type
Sun 07:53:16 PM 42.7672 -73.8061 180° South 167 192 1,100  Level Boston Center
Sun 07:53:47 PM 42.7903 -73.8150 344° North 169 194 1,700 1,451 Climbing Boston Center
Sun 07:54:47 PM 42.8353 -73.8728 317° Northwest 232 267 3,300 2,043 Climbing Boston Center
Sun 07:55:00 PM 42.5312 -74.0387 171° South  Level Estimated
Sun 07:56:00 PM 42.4585 -74.1172 180° South  Level Estimated
Sun 07:56:08 PM 42.9050 -73.9594 318° Northwest 285 328 6,500  Level Boston Center
Sun 07:57:00 PM 42.3857 -74.1955 170° South  Level Estimated
Sun 07:57:08 PM 42.9308 -74.0450 292° West 259 298 9,400  Level Boston Center
Sun 07:58:00 PM 42.3129 -74.2737 180° South  Level Estimated
Sun 07:58:08 PM 42.9403 -74.1275 279° West 259 298 10,600  Level Boston Center
Sun 07:59:08 PM 42.9031 -74.2372 245° Southwest 281 323 12,600 2,050 Climbing Boston Center
Sun 08:00:08 PM 42.8181 -74.2092 166° South 263 303 14,700 1,850 Climbing Boston Center
Sun 08:01:08 PM 42.7272 -74.1528 155° Southeast 316 364 16,300 1,500 Climbing Boston Center
Sun 08:02:08 PM 42.6444 -74.1056 157° South 363 418 17,700 1,300 Climbing Boston Center
Sun 08:03:08 PM 42.5494 -74.0494 156° South 371 427 18,900 1,250 Climbing Boston Center
Sun 08:04:08 PM 42.4522 -73.9961 158° South 376 433 20,200 1,150 Climbing Boston Center
Sun 08:05:08 PM 42.3550 -73.9375 156° South 381 438 21,200 950 Climbing Boston Center
Sun 08:06:08 PM 42.2536 -73.8819 158° South 386 444 22,100 1,050 Climbing Boston Center
Sun 08:07:08 PM 42.1503 -73.8206 156° South 399 459 23,300 1,100 Climbing Boston Center
Sun 08:08:08 PM 42.0425 -73.7597 157° South 410 472 24,300 900 Climbing Boston Center
Sun 08:09:08 PM 41.9350 -73.6986 157° South 410 472 25,100 950 Climbing Boston Center
Sun 08:10:08 PM 41.8272 -73.6353 156° South 415 478 26,200 1,200 Climbing Boston Center
Sun 08:11:08 PM 41.7150 -73.5997 167° South 415 478 27,500 1,250 Climbing Boston Center
Sun 08:12:08 PM 41.6025 -73.5978 179° South 407 468 28,700 979 Climbing Boston Center
Sun 08:14:18 PM 41.3550 -73.5847 178° South 406 467 30,600 947 Climbing New York Center
Sun 08:15:18 PM 41.2519 -73.6358 200° South 399 459 31,700 942 Climbing New York Center
Sun 08:16:19 PM 41.1867 -73.7433 231° Southwest 371 427 32,500 843 Climbing New York Center
Sun 08:17:19 PM 41.1236 -73.8478 231° Southwest 365 420 33,400 843 Climbing New York Center
Sun 08:18:20 PM 41.0603 -73.9578 233° Southwest 371 427 34,200 744 Climbing New York Center
Sun 08:19:20 PM 40.9969 -74.0647 232° Southwest 376 433 34,900 712 Climbing New York Center
Sun 08:20:18 PM 40.9336 -74.1714 232° Southwest 376 433 35,600 450 Climbing New York Center
Sun 08:21:20 PM 40.8681 -74.2697 229° Southwest 371 427 35,800 197 Climbing New York Center
Sun 08:22:20 PM 40.8044 -74.3789 232° Southwest 371 427 36,000 100 Climbing New York Center
Sun 08:23:20 PM 40.7386 -74.4875 231° Southwest 376 433 36,000  Level New York Center
Sun 08:24:18 PM 40.6725 -74.5961 231° Southwest 381 438 36,000  Level New York Center
Sun 08:25:18 PM 40.6089 -74.6992 231° Southwest 381 438 36,000  Level New York Center
Sun 08:26:20 PM 40.5428 -74.7992 229° Southwest 376 433 36,000  Level New York Center
Sun 08:27:18 PM 40.4747 -74.8989 228° Southwest 376 433 36,000  Level New York Center
Sun 08:28:19 PM 40.4047 -74.9956 226° Southwest 370 426 36,000  Level New York Center
Sun 08:29:19 PM 40.3364 -75.0950 228° Southwest 375 432 36,000  Level New York Center
Sun 08:30:20 PM 40.2661 -75.1967 228° Southwest 375 432 36,000  Level New York Center
Sun 08:31:18 PM 40.1978 -75.2928 227° Southwest 375 432 36,000  Level New York Center
Sun 08:32:18 PM 40.1253 -75.3911 226° Southwest 375 432 36,000  Level New York Center
Sun 08:33:19 PM 40.0567 -75.4869 227° Southwest 375 432 36,000  Level New York Center
Sun 08:34:19 PM 39.9861 -75.5825 226° Southwest 375 432 36,000  Level New York Center
Sun 08:36:23 PM 39.8383 -75.8022 229° Southwest 370 426 36,000  Level Washington Center
Sun 08:37:23 PM 39.7717 -75.9072 230° Southwest 370 426 36,000  Level Washington Center
Sun 08:38:25 PM 39.7067 -76.0122 231° Southwest 370 426 36,000  Level Washington Center
Sun 08:39:26 PM 39.6417 -76.1144 230° Southwest 376 433 36,000  Level Washington Center
Sun 08:40:23 PM 39.5744 -76.2161 229° Southwest 376 433 36,000  Level Washington Center
Sun 08:41:23 PM 39.5072 -76.3231 231° Southwest 376 433 36,000  Level Washington Center
Sun 08:42:24 PM 39.4378 -76.4272 229° Southwest 376 433 36,000  Level Washington Center
Sun 08:43:24 PM 39.3725 -76.5286 230° Southwest 376 433 36,000  Level Washington Center
Sun 08:44:24 PM 39.3050 -76.6350 231° Southwest 376 433 36,000  Level Washington Center
Sun 08:45:25 PM 39.2414 -76.7358 231° Southwest 376 433 36,000  Level Washington Center
Sun 08:46:23 PM 39.1736 -76.8419 231° Southwest 376 433 36,000  Level Washington Center
Sun 08:47:23 PM 39.1058 -76.9450 230° Southwest 376 433 36,000  Level Washington Center
Sun 08:48:23 PM 39.0381 -77.0453 229° Southwest 376 433 36,000  Level Washington Center
Sun 08:49:23 PM 38.9556 -77.1372 221° Southwest 376 433 36,000  Level Washington Center
Sun 08:50:24 PM 38.8731 -77.2233 219° Southwest 382 440 36,000  Level Washington Center
Sun 08:51:25 PM 38.7928 -77.3094 220° Southwest 389 448 36,000  Level Washington Center
Sun 08:52:26 PM 38.7100 -77.4033 222° Southwest 389 448 36,000  Level Washington Center
Sun 08:53:23 PM 38.6275 -77.4917 220° Southwest 384 442 36,000  Level Washington Center
Sun 08:54:24 PM 38.5447 -77.5800 220° Southwest 384 442 36,000  Level Washington Center
Sun 08:55:26 PM 38.4617 -77.6731 221° Southwest 389 448 36,000  Level Washington Center
Sun 08:56:23 PM 38.3747 -77.7661 220° Southwest 394 453 36,000  Level Washington Center
Sun 08:57:24 PM 38.2894 -77.8589 221° Southwest 399 459 36,000  Level Washington Center
Sun 08:58:25 PM 38.2022 -77.9514 220° Southwest 404 465 36,000  Level Washington Center
Sun 08:59:24 PM 38.1189 -78.0436 221° Southwest 404 465 36,000  Level Washington Center
Sun 09:00:23 PM 38.0336 -78.1331 220° Southwest 409 471 36,000  Level Washington Center
Sun 09:01:23 PM 37.9606 -78.2333 227° Southwest 395 455 36,000  Level Washington Center
Sun 09:02:24 PM 37.8958 -78.3286 229° Southwest 403 464 36,000  Level Washington Center
Sun 09:03:24 PM 37.8206 -78.4361 228° Southwest 403 464 36,000  Level Washington Center
Sun 09:04:25 PM 37.7469 -78.5411 228° Southwest 403 464 36,000  Level Washington Center
Sun 09:05:23 PM 37.6733 -78.6458 228° Southwest 403 464 36,000 -50 Level Washington Center
Sun 09:06:24 PM 37.5911 -78.7606 228° Southwest 403 464 35,900 -541 Descending Washington Center
Sun 09:07:25 PM 37.5153 -78.8700 229° Southwest 403 464 34,900 -1,008 Descending Washington Center
Sun 09:08:23 PM 37.4394 -78.9764 228° Southwest 403 464 33,900 -1,008 Descending Washington Center
Sun 09:09:24 PM 37.3633 -79.0803 227° Southwest 403 464 32,900 -942 Descending Washington Center
Sun 09:10:24 PM 37.2872 -79.1892 229° Southwest 403 464 32,000 -450 Descending Washington Center
Sun 09:11:24 PM 37.2072 -79.2739 220° Southwest 410 472 32,000  Level Washington Center
Sun 09:12:25 PM 37.1089 -79.3553 213° Southwest 415 478 32,000  Level Washington Center
Sun 09:13:23 PM 37.0103 -79.4389 214° Southwest 428 493 32,000  Level Washington Center
Sun 09:14:23 PM 36.9094 -79.5194 213° Southwest 435 501 32,000  Level Washington Center
Sun 09:15:23 PM 36.8022 -79.6100 214° Southwest 435 501 32,000  Level Washington Center
Sun 09:16:24 PM 36.7036 -79.6906 213° Southwest 435 501 32,000  Level Washington Center
Sun 09:17:25 PM 36.6028 -79.7706 213° Southwest 430 495 32,000 -1,579 Level Washington Center
Sun 09:20:31 PM 36.2969 -80.0200 213° Southwest 412 474 25,500 -2,098 Descending Atlanta Center
Sun 09:21:31 PM 36.2078 -80.0967 215° Southwest 391 450 23,400 -2,050 Descending Atlanta Center
Sun 09:22:31 PM 36.1286 -80.1647 215° Southwest 391 450 21,400 -1,950 Descending Atlanta Center
Sun 09:23:31 PM 36.0411 -80.2381 214° Southwest 391 450 19,500 -1,900 Descending Atlanta Center
Sun 09:24:31 PM 35.9600 -80.3086 215° Southwest 386 444 17,600 -1,982 Descending Atlanta Center
Sun 09:25:20 PM 35.8867 -80.3736 216° Southwest 349 402 15,900 -1,927 Descending Atlanta Center
Sun 09:26:20 PM 35.8114 -80.4383 215° Southwest 335 386 14,100 -1,785 Descending Atlanta Center
Sun 09:27:21 PM 35.7342 -80.5033 214° Southwest 303 349 12,300 -1,672 Descending Atlanta Center
Sun 09:28:22 PM 35.6539 -80.5400 200° South 305 351 10,700 -1,477 Descending Atlanta Center
Sun 09:29:31 PM 35.5669 -80.5667 194° South 298 343 9,100 -1,163 Descending Atlanta Center
Sun 09:30:31 PM 35.4947 -80.5925 196° South 286 329 8,200 -1,100 Descending Atlanta Center
Sun 09:31:31 PM 35.4353 -80.6358 211° Southwest 264 304 6,900 -1,300 Descending Atlanta Center
Sun 09:32:31 PM 35.3911 -80.6989 229° Southwest 250 288 5,600 -1,200 Descending Atlanta Center
Sun 09:33:31 PM 35.3531 -80.7514 228° Southwest 225 259 4,500 -1,086 Descending Atlanta Center
Sun 09:34:27 PM 35.3186 -80.7986 228° Southwest 197 227 3,500 -973 Descending Atlanta Center
Sun 09:35:22 PM 35.2886 -80.8431 230° Southwest 179 206 2,700 -873 Descending Atlanta Center

Login

Don't have an account? Register now (free) for customized features, flight alerts, and more!